Startpagina
METAR-TAF:

METAR-TAF

Vliegvelden :

David, Panama

breedte: 08-24N, lengte: 082-25W, hoogte: 29 m

Actueel weer

Dit bericht is 43 minuten geleden gemaakt, om 13:00 UTC
Wind 3 kt uit het noordwesten
Temperatuur 25°C
Vochtigheid 94%
Druk 1011 hPa
Zicht 10 km of meer
Weinig wolken op 800 ft
Verspreide wolken op 1600 ft, Cumulonimbus.

METAR: MPDA 231300Z 32003KT 9999 FEW008 SCT016CB 25/24 Q1011

Tijdstip: 08:43 (13:43 UTC)

Verwachting

Dit bericht is 3 uur en het 8 minuten geleden gemaakt, om 10:35 UTC
Verwachting geldig van 23 om 12 UTC tot 23 om 24 UTC
Wind 6 kt uit het zuidwesten
Zicht 10 km of meer
Verspreide wolken op 1400 ft, Cumulonimbus.
Gebroken wolken op 9000 ft
Tijdelijke
van 23 om 15 UTC tot 23 om 19 UTC
Zicht: 6000 m
Verspreide wolken op 1500 ft, Cumulonimbus.
Gebroken wolken op 8000 ft
onweer, regen
Tijdelijke
van 23 om 19 UTC tot 23 om 23 UTC
Wind kt uit het noorden

TAF: MPDA 231035Z 2312/2324 22006KT 9999 SCT014CB BKN090 TEMPO 2315/2319 6000 TSRA SCT015CB BKN080 TEMPO 2319/2323 00000KT NSW

Waarnemingen en weersverwachtingen van meer dan 4000 vliegvelden (METAR en TAF).

De beschikbare stations zijn de gele en rode punten op de kaart.

Ga met uw muis naar het station om de naam te zien.

Klik dan om waarnemingen en weersverwachtingen te zien.

kaart wijzigen: klik op de groene knoppen met een zwart kruis om in te zoomen, op de groene knop met een streepje om uit te zoomen of op de groene pijlen voor aangrenzende kaarten.


METAR-TAF: